Time;durP1;ratioP1;P1;durP2;ratioP2;P2;SDS_P1;SDS_P2;PMS_P1;PMS_P2;Temp;Humidity;BMP_temperature;BMP_pressure;BME280_temperature;BME280_humidity;BME280_pressure;Samples;Min_cycle;Max_cycle;Signal;HPM_P1;HPM_P2
2021/03/09 00:00:54;;;;;;;5.07;3.47;;;;;;;-8.34;61.77;99308.91;5044752;28;20068;-55
2021/03/09 00:03:20;;;;;;;6.80;3.45;;;;;;;-8.40;60.73;99320.28;5044754;28;20032;-55
2021/03/09 00:05:46;;;;;;;5.07;3.70;;;;;;;-8.54;60.87;99312.97;5044704;28;20029;-55
2021/03/09 00:08:13;;;;;;;5.55;3.50;;;;;;;-8.64;60.81;99328.38;5043609;28;20397;-55
2021/03/09 00:10:40;;;;;;;7.90;3.63;;;;;;;-8.51;62.82;99323.19;5044631;28;20230;-55
2021/03/09 00:13:06;;;;;;;5.22;3.80;;;;;;;-8.61;61.54;99323.50;5044625;28;20061;-55
2021/03/09 00:15:32;;;;;;;5.90;3.75;;;;;;;-8.63;61.32;99325.09;5044259;28;20049;-55
2021/03/09 00:17:58;;;;;;;7.50;3.40;;;;;;;-8.49;62.44;99318.22;5044550;28;20085;-55
2021/03/09 00:20:24;;;;;;;6.93;3.90;;;;;;;-8.58;61.41;99323.66;5043248;28;20156;-55
2021/03/09 00:22:50;;;;;;;5.40;3.28;;;;;;;-8.55;61.14;99310.38;5044547;28;20067;-56
2021/03/09 00:25:16;;;;;;;5.82;3.30;;;;;;;-8.39;61.95;99317.00;5044362;28;20074;-54
2021/03/09 00:27:41;;;;;;;5.22;3.60;;;;;;;-8.56;61.54;99317.06;5044291;28;20345;-54
2021/03/09 00:30:08;;;;;;;6.57;3.35;;;;;;;-8.63;61.40;99307.50;5044119;28;20031;-55
2021/03/09 00:32:34;;;;;;;4.55;3.30;;;;;;;-8.61;61.40;99310.94;5044210;28;20310;-55
2021/03/09 00:35:00;;;;;;;6.00;3.58;;;;;;;-8.65;61.12;99325.78;5043446;28;20022;-54
2021/03/09 00:37:26;;;;;;;5.78;3.88;;;;;;;-8.80;62.19;99333.44;5044036;28;20018;-55
2021/03/09 00:39:52;;;;;;;7.65;3.60;;;;;;;-8.77;60.75;99324.41;5044245;28;20333;-54
2021/03/09 00:42:18;;;;;;;5.32;3.50;;;;;;;-8.78;62.01;99331.84;5043970;28;20021;-55
2021/03/09 00:44:44;;;;;;;5.50;3.45;;;;;;;-8.85;61.79;99333.19;5044114;28;20088;-54
2021/03/09 00:47:10;;;;;;;4.97;3.13;;;;;;;-8.79;62.41;99330.13;5044025;28;20373;-55
2021/03/09 00:49:35;;;;;;;6.32;3.42;;;;;;;-8.76;61.30;99322.78;5043777;28;20021;-54
2021/03/09 00:52:02;;;;;;;6.15;3.25;;;;;;;-8.86;62.50;99322.28;5043940;28;20071;-54
2021/03/09 00:54:27;;;;;;;6.75;3.45;;;;;;;-8.72;61.01;99344.69;5043712;28;20021;-55
2021/03/09 00:56:53;;;;;;;5.50;3.28;;;;;;;-8.86;60.84;99337.34;5043687;28;20037;-55
2021/03/09 00:59:19;;;;;;;7.68;3.67;;;;;;;-9.12;60.10;99337.66;5043384;28;20032;-54
2021/03/09 01:01:45;;;;;;;5.88;3.40;;;;;;;-9.02;59.79;99342.38;5043736;28;20028;-54
2021/03/09 01:04:11;;;;;;;4.85;3.30;;;;;;;-9.03;61.22;99335.66;5043720;28;20092;-54
2021/03/09 01:06:37;;;;;;;6.57;3.65;;;;;;;-9.08;60.57;99334.53;5034558;28;20104;-54
2021/03/09 01:09:03;;;;;;;6.55;3.92;;;;;;;-8.96;61.37;99347.72;5043562;28;20314;-54
2021/03/09 01:11:29;;;;;;;8.10;3.88;;;;;;;-8.94;61.25;99341.13;5043451;28;20024;-54
2021/03/09 01:13:55;;;;;;;7.47;4.05;;;;;;;-8.95;60.66;99341.03;5043429;28;20021;-54
2021/03/09 01:16:21;;;;;;;10.35;4.13;;;;;;;-9.00;61.34;99347.50;5043072;28;20298;-54
2021/03/09 01:18:47;;;;;;;5.72;3.72;;;;;;;-8.92;62.46;99347.09;5043387;28;20021;-53
2021/03/09 01:21:12;;;;;;;8.00;3.75;;;;;;;-8.95;62.37;99344.44;5042290;28;20021;-54
2021/03/09 01:23:38;;;;;;;6.93;4.03;;;;;;;-8.96;62.11;99352.72;5043492;28;20024;-55
2021/03/09 01:26:04;;;;;;;7.93;3.80;;;;;;;-9.16;59.81;99356.72;5043427;28;20317;-56
2021/03/09 01:28:30;;;;;;;6.50;3.80;;;;;;;-9.27;61.61;99363.69;5043263;28;20025;-56
2021/03/09 01:30:56;;;;;;;7.72;4.22;;;;;;;-9.34;62.62;99373.31;5043433;28;20017;-55
2021/03/09 01:33:23;;;;;;;9.43;4.07;;;;;;;-9.16;62.81;99365.88;5043244;28;20025;-55
2021/03/09 01:35:49;;;;;;;7.32;4.15;;;;;;;-9.33;61.99;99365.00;5043342;28;20088;-55
2021/03/09 01:38:15;;;;;;;7.20;4.10;;;;;;;-9.16;61.57;99370.88;5043085;28;20052;-55
2021/03/09 01:40:41;;;;;;;10.38;4.50;;;;;;;-9.20;61.43;99372.41;5042986;28;20017;-55
2021/03/09 01:43:07;;;;;;;11.77;5.30;;;;;;;-9.11;60.77;99374.50;5043171;28;20021;-56
2021/03/09 01:45:33;;;;;;;8.15;4.25;;;;;;;-9.25;61.45;99366.25;5045572;28;20029;-56
2021/03/09 01:48:02;;;;;;;8.43;4.40;;;;;;;-9.80;60.04;99282.41;5047609;28;20338;-56
2021/03/09 01:50:29;;;;;;;7.60;4.32;;;;;;;-9.35;60.70;99379.97;5047285;28;20025;-55
2021/03/09 01:52:55;;;;;;;8.88;4.30;;;;;;;-9.39;61.81;99375.56;5047392;28;20096;-56
2021/03/09 01:55:22;;;;;;;6.78;4.07;;;;;;;-9.36;61.78;99388.28;5047102;28;20026;-56
2021/03/09 01:57:50;;;;;;;6.43;3.85;;;;;;;-9.30;61.26;99393.63;5047047;28;20021;-56
2021/03/09 02:00:16;;;;;;;6.65;3.55;;;;;;;-9.31;61.65;99386.88;5047002;28;20029;-55
2021/03/09 02:02:42;;;;;;;5.95;3.53;;;;;;;-9.24;61.26;99398.94;5045973;28;20083;-54
2021/03/09 02:05:11;;;;;;;9.00;5.07;;;;;;;-9.52;60.43;99355.66;5047044;28;20025;-55
2021/03/09 02:07:37;;;;;;;8.30;4.07;;;;;;;-9.47;60.92;99394.38;5039051;28;20068;-54
2021/03/09 02:10:06;;;;;;;7.57;3.58;;;;;;;-9.50;61.54;99427.66;5046995;28;20064;-55
2021/03/09 02:13:08;;;;;;;4.90;3.08;;;;;;;-9.43;63.28;99403.78;5046675;28;20025;-54
2021/03/09 02:15:57;;;;;;;6.57;3.80;;;;;;;-9.49;61.71;99405.94;5046531;28;20045;-54
2021/03/09 02:18:43;;;;;;;4.93;3.90;;;;;;;-9.40;62.91;99408.97;5046707;28;20037;-55
2021/03/09 02:21:20;;;;;;;6.45;3.50;;;;;;;-9.40;61.11;99413.97;5046818;28;20021;-55
2021/03/09 02:24:01;;;;;;;4.88;3.30;;;;;;;-9.41;60.96;99412.22;5046772;28;20067;-55
2021/03/09 02:26:57;;;;;;;5.57;3.63;;;;;;;-9.34;63.41;99419.28;5046550;28;20032;-56
2021/03/09 02:30:04;;;;;;;8.10;3.83;;;;;;;-9.48;61.67;99413.53;5046439;28;20202;-55
2021/03/09 02:32:34;;;;;;;4.80;3.47;;;;;;;-9.76;62.08;99426.22;5024130;28;20052;-54
2021/03/09 02:35:02;;;;;;;6.15;3.78;;;;;;;-9.94;62.38;99419.41;5045419;28;20017;-55
2021/03/09 02:37:35;;;;;;;5.13;3.80;;;;;;;-9.93;62.85;99412.75;5046217;28;20021;-55
2021/03/09 02:40:04;;;;;;;6.82;3.67;;;;;;;-10.15;61.44;99421.56;5046437;28;20029;-55
2021/03/09 02:42:35;;;;;;;6.72;3.70;;;;;;;-10.46;62.85;99339.81;5046107;28;20440;-55
2021/03/09 02:45:01;;;;;;;6.63;3.83;;;;;;;-9.94;61.45;99431.94;5046270;28;20355;-55
2021/03/09 02:47:30;;;;;;;6.70;3.80;;;;;;;-10.12;62.75;99400.84;5046240;28;20191;-55
2021/03/09 02:50:09;;;;;;;6.53;4.05;;;;;;;-10.01;61.47;99416.50;5046074;28;20072;-54
2021/03/09 02:52:36;;;;;;;6.28;3.75;;;;;;;-9.94;63.08;99436.94;5045968;28;20029;-58
2021/03/09 02:55:02;;;;;;;7.88;3.92;;;;;;;-9.95;62.25;99434.34;5046134;28;20324;-57
2021/03/09 02:57:31;;;;;;;10.65;3.55;;;;;;;-10.16;62.74;99454.03;5044761;28;20092;-56
2021/03/09 02:59:58;;;;;;;4.80;3.25;;;;;;;-9.99;64.11;99437.47;5046053;28;20017;-56
2021/03/09 03:02:25;;;;;;;6.20;3.63;;;;;;;-10.21;61.72;99445.41;5045886;28;20149;-55
2021/03/09 03:04:52;;;;;;;8.15;3.58;;;;;;;-10.14;62.14;99443.34;5045820;28;20024;-56
2021/03/09 03:07:18;;;;;;;5.60;3.65;;;;;;;-10.15;62.06;99454.13;5045753;28;20048;-56
2021/03/09 03:09:46;;;;;;;6.57;3.70;;;;;;;-10.56;61.56;99379.22;5045972;28;20163;-56
2021/03/09 03:12:13;;;;;;;6.53;3.58;;;;;;;-10.33;63.26;99451.44;5045702;28;20436;-56
2021/03/09 03:14:44;;;;;;;5.35;3.28;;;;;;;-10.90;62.21;99380.66;5045780;28;20032;-56
2021/03/09 03:17:13;;;;;;;7.63;3.60;;;;;;;-10.66;63.26;99447.84;5045933;28;20048;-56
2021/03/09 03:19:41;;;;;;;5.95;3.65;;;;;;;-10.47;63.58;99442.31;5037989;28;20022;-56
2021/03/09 03:22:09;;;;;;;6.22;4.13;;;;;;;-10.62;61.65;99462.28;5045663;28;20025;-56
2021/03/09 03:24:35;;;;;;;8.20;3.55;;;;;;;-10.55;63.70;99466.88;5045708;28;20092;-55
2021/03/09 03:27:01;;;;;;;7.80;4.15;;;;;;;-10.53;62.26;99461.94;5045751;28;20028;-56
2021/03/09 03:29:28;;;;;;;5.22;3.75;;;;;;;-10.71;62.46;99472.59;5045467;28;20089;-54
2021/03/09 03:31:54;;;;;;;7.28;3.53;;;;;;;-10.65;64.81;99479.63;5045564;28;20025;-55
2021/03/09 03:34:20;;;;;;;4.95;3.67;;;;;;;-10.72;62.06;99482.53;5045366;28;20098;-57
2021/03/09 03:36:46;;;;;;;9.35;4.68;;;;;;;-10.71;62.96;99480.13;5045584;28;20257;-56
2021/03/09 03:39:12;;;;;;;8.35;3.83;;;;;;;-10.77;63.24;99477.25;5045220;28;20021;-56
2021/03/09 03:41:38;;;;;;;7.03;4.28;;;;;;;-10.81;63.09;99480.34;5045405;28;20028;-55
2021/03/09 03:44:04;;;;;;;5.93;3.80;;;;;;;-10.68;61.83;99479.44;5045200;28;20021;-56
2021/03/09 03:46:30;;;;;;;5.75;3.65;;;;;;;-10.70;62.41;99480.97;5045063;28;20117;-57
2021/03/09 03:48:56;;;;;;;5.43;3.53;;;;;;;-10.77;61.55;99484.75;5042661;28;20025;-57
2021/03/09 03:51:29;;;;;;;7.68;3.90;;;;;;;-10.84;62.23;99447.66;5042582;28;20071;-57
2021/03/09 03:54:23;;;;;;;6.57;3.55;;;;;;;-10.69;64.32;99506.06;5034135;28;20025;-57
2021/03/09 03:57:05;;;;;;;7.32;4.07;;;;;;;-10.79;62.21;99484.66;5041008;28;20286;-55
2021/03/09 03:59:35;;;;;;;7.30;3.40;;;;;;;-11.44;62.65;99412.41;5043783;28;20117;-54
2021/03/09 04:02:07;;;;;;;7.13;4.00;;;;;;;-11.08;61.82;99489.53;5043690;28;20328;-57
2021/03/09 04:04:36;;;;;;;7.07;3.90;;;;;;;-10.90;62.75;99479.78;5044664;28;20033;-56
2021/03/09 04:07:03;;;;;;;10.27;5.15;;;;;;;-10.97;63.12;99493.56;5044624;28;20075;-55
2021/03/09 04:09:31;;;;;;;7.93;4.05;;;;;;;-10.97;62.91;99483.56;5042127;28;20029;-55
2021/03/09 04:11:59;;;;;;;8.07;4.68;;;;;;;-10.95;63.62;99487.00;5044603;28;20033;-56
2021/03/09 04:14:25;;;;;;;6.43;3.75;;;;;;;-11.15;63.21;99505.78;5044440;28;20053;-55
2021/03/09 04:16:54;;;;;;;5.60;4.07;;;;;;;-11.06;63.16;99498.00;5044359;28;20374;-55
2021/03/09 04:19:22;;;;;;;8.88;4.70;;;;;;;-11.31;62.28;99422.38;5044459;28;20218;-55
2021/03/09 04:21:49;;;;;;;7.25;4.93;;;;;;;-10.82;63.10;99504.47;5043542;28;20025;-56
2021/03/09 04:24:16;;;;;;;7.68;3.97;;;;;;;-10.90;61.88;99499.78;5030868;28;20269;-55
2021/03/09 04:26:44;;;;;;;10.48;4.90;;;;;;;-10.76;61.51;99502.34;5044561;28;20222;-55
2021/03/09 04:29:11;;;;;;;7.63;4.07;;;;;;;-10.66;61.76;99510.41;5044448;28;20093;-56
2021/03/09 04:31:38;;;;;;;9.25;4.22;;;;;;;-10.68;61.23;99527.81;5044238;28;20025;-57
2021/03/09 04:34:05;;;;;;;7.03;4.10;;;;;;;-10.87;61.04;99498.34;5044257;28;20084;-57
2021/03/09 04:36:33;;;;;;;8.55;4.43;;;;;;;-10.87;61.90;99510.84;5043914;28;20045;-55
2021/03/09 04:39:01;;;;;;;7.53;3.97;;;;;;;-11.12;62.74;99456.84;5043990;28;20049;-56
2021/03/09 04:41:27;;;;;;;5.07;3.75;;;;;;;-10.99;61.25;99515.94;5043912;28;20029;-55
2021/03/09 04:43:53;;;;;;;9.40;4.20;;;;;;;-10.95;60.68;99509.50;5044064;28;20055;-55
2021/03/09 04:46:23;;;;;;;7.43;4.10;;;;;;;-11.07;61.47;99518.75;5043919;28;20091;-55
2021/03/09 04:48:50;;;;;;;8.95;4.32;;;;;;;-11.00;61.84;99519.25;5042756;28;20104;-56
2021/03/09 04:51:17;;;;;;;7.63;4.05;;;;;;;-11.01;60.81;99527.50;5042523;28;20033;-55
2021/03/09 04:53:45;;;;;;;7.60;4.28;;;;;;;-10.82;62.06;99531.13;5041377;28;20049;-55
2021/03/09 04:56:11;;;;;;;8.02;4.30;;;;;;;-10.93;60.04;99526.34;5043481;28;20025;-56
2021/03/09 04:58:37;;;;;;;9.50;4.47;;;;;;;-10.94;60.44;99534.59;5035920;28;20025;-56
2021/03/09 05:01:04;;;;;;;7.97;4.72;;;;;;;-10.94;61.10;99544.59;5043389;28;20036;-55
2021/03/09 05:03:33;;;;;;;7.43;4.60;;;;;;;-10.88;60.36;99549.13;5041296;28;20053;-55
2021/03/09 05:06:00;;;;;;;8.82;4.30;;;;;;;-10.91;61.71;99553.94;5043191;28;20345;-55
2021/03/09 05:08:26;;;;;;;8.60;3.85;;;;;;;-10.64;61.21;99553.91;5041549;28;20025;-56
2021/03/09 05:10:53;;;;;;;6.05;3.67;;;;;;;-11.06;59.82;99480.50;5041935;28;20101;-57
2021/03/09 05:13:19;;;;;;;7.25;4.38;;;;;;;-10.77;60.18;99548.13;5043343;28;20385;-56
2021/03/09 05:15:45;;;;;;;5.55;3.88;;;;;;;-10.52;59.80;99564.63;5041246;28;20057;-57
2021/03/09 05:18:12;;;;;;;9.50;4.82;;;;;;;-10.86;59.00;99527.56;5038616;28;20266;-56
2021/03/09 05:20:39;;;;;;;6.95;4.28;;;;;;;-10.76;58.95;99564.00;5042375;28;20083;-55
2021/03/09 05:23:05;;;;;;;5.93;3.85;;;;;;;-10.66;59.25;99571.31;5041604;28;20159;-55
2021/03/09 05:25:31;;;;;;;7.13;4.05;;;;;;;-10.67;58.44;99577.09;5041428;28;20379;-56
2021/03/09 05:27:57;;;;;;;6.70;4.07;;;;;;;-10.50;59.87;99587.22;5041845;28;20317;-55
2021/03/09 05:30:23;;;;;;;5.90;4.07;;;;;;;-10.57;58.40;99581.00;5042595;28;20056;-56
2021/03/09 05:32:49;;;;;;;9.90;4.60;;;;;;;-10.69;58.99;99583.63;5042915;28;20044;-55
2021/03/09 05:35:16;;;;;;;6.30;4.03;;;;;;;-10.46;58.97;99587.53;5042698;28;20310;-56
2021/03/09 05:37:44;;;;;;;7.95;4.63;;;;;;;-10.43;58.25;99586.81;5043266;28;20036;-60
2021/03/09 05:40:11;;;;;;;8.85;4.68;;;;;;;-10.35;59.63;99603.19;5041670;28;20048;-56
2021/03/09 05:42:37;;;;;;;9.32;4.10;;;;;;;-10.51;59.33;99598.88;5034952;28;20025;-56
2021/03/09 05:45:05;;;;;;;9.50;4.57;;;;;;;-10.35;59.49;99603.19;5042745;28;20051;-56
2021/03/09 05:47:33;;;;;;;9.48;4.97;;;;;;;-10.16;57.06;99600.13;5042164;28;20099;-56
2021/03/09 05:49:59;;;;;;;8.63;4.45;;;;;;;-10.29;57.29;99602.66;5041139;28;20022;-57
2021/03/09 05:52:25;;;;;;;10.90;4.55;;;;;;;-10.19;nan;99599.06;5038541;28;20289;-60
2021/03/09 05:54:51;;;;;;;7.18;4.25;;;;;;;-10.07;57.31;99599.78;5039344;28;20029;-57
2021/03/09 05:57:18;;;;;;;8.60;4.88;;;;;;;-10.43;57.86;99606.84;5036735;28;20088;-57
2021/03/09 05:59:45;;;;;;;6.93;4.93;;;;;;;-10.07;57.04;99610.66;5034680;28;20022;-55
2021/03/09 06:02:11;;;;;;;7.57;4.43;;;;;;;-9.95;58.35;99598.00;5041680;28;20207;-57
2021/03/09 06:04:37;;;;;;;7.57;4.32;;;;;;;-9.65;56.57;99609.72;5035119;28;20360;-57
2021/03/09 06:07:04;;;;;;;7.63;4.65;;;;;;;-9.81;57.06;99606.31;5041934;28;20026;-56
2021/03/09 06:09:33;;;;;;;8.40;4.15;;;;;;;-10.11;57.40;99616.25;5042234;28;20026;-57
2021/03/09 06:12:09;;;;;;;6.43;4.50;;;;;;;-10.49;56.82;99641.50;5042230;28;20025;-56
2021/03/09 06:14:40;;;;;;;8.50;4.38;;;;;;;-10.09;57.04;99643.91;5041219;28;20041;-57
2021/03/09 06:17:09;;;;;;;9.20;4.75;;;;;;;-9.71;58.36;99608.56;5043063;28;20075;-56
2021/03/09 06:19:47;;;;;;;8.20;4.65;;;;;;;-10.15;55.44;99560.91;5033220;28;20226;-57
2021/03/09 06:22:15;;;;;;;6.65;4.85;;;;;;;-10.09;56.85;99547.13;5041933;28;20026;-57
2021/03/09 06:24:42;;;;;;;5.18;4.00;;;;;;;-9.24;54.61;99628.75;5041472;28;20037;-57
2021/03/09 06:27:26;;;;;;;7.10;4.32;;;;;;;-9.27;53.85;99621.06;5042098;28;20029;-56
2021/03/09 06:29:52;;;;;;;8.27;4.57;;;;;;;-9.50;56.46;99635.66;5036741;28;20063;-57
2021/03/09 06:32:18;;;;;;;10.32;4.72;;;;;;;-9.08;56.51;99632.97;5044708;28;20029;-57
2021/03/09 06:34:44;;;;;;;7.13;3.78;;;;;;;-8.95;54.83;99612.84;5044559;28;20031;-57
2021/03/09 06:37:12;;;;;;;7.75;4.18;;;;;;;-8.67;55.16;99635.25;5044971;28;20314;-57
2021/03/09 06:39:56;;;;;;;8.18;4.32;;;;;;;-8.47;53.32;99637.13;5044250;28;20026;-56
2021/03/09 06:42:31;;;;;;;9.18;4.72;;;;;;;-8.23;52.88;99640.91;5043231;28;20540;-56
2021/03/09 06:45:04;;;;;;;6.78;4.15;;;;;;;-7.31;53.60;99638.81;5045675;28;20047;-56
2021/03/09 06:47:32;;;;;;;9.48;4.47;;;;;;;-6.87;51.71;99637.56;5045648;28;20089;-56
2021/03/09 06:49:59;;;;;;;8.70;4.32;;;;;;;-6.09;49.57;99639.44;5044438;28;20036;-56
2021/03/09 06:52:25;;;;;;;7.25;4.57;;;;;;;-5.94;49.40;99641.75;5045655;28;20221;-56
2021/03/09 06:54:54;;;;;;;8.93;4.38;;;;;;;-5.81;45.95;99563.31;5045291;28;20018;-58
2021/03/09 06:57:20;;;;;;;8.48;4.93;;;;;;;-5.23;47.94;99637.16;5044306;28;20339;-57
2021/03/09 06:59:49;;;;;;;7.40;3.95;;;;;;;-5.92;43.86;99579.66;5045614;28;20253;-56
2021/03/09 07:02:15;;;;;;;10.00;4.95;;;;;;;-5.04;48.05;99634.59;5045343;28;20045;-57
2021/03/09 07:04:49;;;;;;;8.77;5.03;;;;;;;-5.39;46.27;99646.63;5045237;28;20072;-57
2021/03/09 07:07:22;;;;;;;8.85;4.75;;;;;;;-4.05;45.00;99638.31;5045237;28;20035;-57
2021/03/09 07:09:56;;;;;;;6.38;4.22;;;;;;;-4.47;43.63;99638.47;5043488;28;20029;-56
2021/03/09 07:12:23;;;;;;;7.97;4.40;;;;;;;-3.22;44.97;99630.25;5043498;28;20107;-57
2021/03/09 07:14:53;;;;;;;6.63;3.97;;;;;;;-3.02;44.53;99635.06;5045503;28;20028;-56
2021/03/09 07:17:21;;;;;;;8.10;3.95;;;;;;;-3.80;42.68;99575.97;5044924;28;20040;-56
2021/03/09 07:19:49;;;;;;;8.27;4.93;;;;;;;-4.70;43.72;99653.59;5045230;28;20021;-56
2021/03/09 07:22:17;;;;;;;8.40;5.35;;;;;;;-3.78;43.69;99594.59;5042551;28;20036;-57
2021/03/09 07:24:49;;;;;;;8.15;4.25;;;;;;;-3.02;44.34;99648.63;5042619;28;20032;-57
2021/03/09 07:27:17;;;;;;;9.93;4.50;;;;;;;-3.87;41.59;99665.97;5045029;28;20052;-57
2021/03/09 07:29:50;;;;;;;8.25;4.70;;;;;;;-3.00;41.38;99638.53;5042313;28;20314;-57
2021/03/09 07:32:22;;;;;;;7.45;4.65;;;;;;;-2.96;41.73;99632.75;5044998;28;20033;-55
2021/03/09 07:34:49;;;;;;;9.18;4.85;;;;;;;-2.30;43.37;99644.91;5042985;28;20667;-57
2021/03/09 07:37:17;;;;;;;9.45;4.88;;;;;;;-2.68;40.46;99648.81;5044817;28;20092;-58
2021/03/09 07:39:43;;;;;;;8.73;5.03;;;;;;;-5.38;41.59;99662.63;5042235;28;20033;-56
2021/03/09 07:42:10;;;;;;;8.95;5.00;;;;;;;-4.44;45.87;99657.94;5043246;28;20091;-56
2021/03/09 07:44:39;;;;;;;7.05;4.72;;;;;;;-5.00;42.87;99655.78;5044625;28;20027;-56
2021/03/09 07:47:08;;;;;;;7.95;4.75;;;;;;;-4.96;44.05;99652.59;5042467;28;20036;-56
2021/03/09 07:49:35;;;;;;;9.52;5.43;;;;;;;-5.23;44.89;99665.78;5045012;28;20021;-56
2021/03/09 07:52:15;;;;;;;10.85;5.50;;;;;;;-7.70;45.89;99502.81;5044732;28;20017;-56
2021/03/09 07:55:20;;;;;;;8.82;4.97;;;;;;;-5.98;47.12;99675.22;5044401;28;20018;-56
2021/03/09 07:57:46;;;;;;;9.77;5.43;;;;;;;-5.41;47.19;99677.66;5005099;28;20330;-56
2021/03/09 08:00:13;;;;;;;10.77;6.57;;;;;;;-5.51;45.49;99665.44;4983587;28;20257;-56
2021/03/09 08:02:49;;;;;;;9.30;5.47;;;;;;;-6.22;47.79;99687.56;5005620;28;20045;-56
2021/03/09 08:05:19;;;;;;;10.25;4.75;;;;;;;-6.52;46.45;99617.38;5004287;28;20044;-57
2021/03/09 08:08:04;;;;;;;10.73;5.50;;;;;;;-6.08;47.79;99691.59;5001115;28;20033;-57
2021/03/09 08:10:33;;;;;;;12.95;5.85;;;;;;;-6.80;48.91;99702.56;5005097;28;20064;-56
2021/03/09 08:13:22;;;;;;;10.05;5.70;;;;;;;-6.49;47.48;99698.09;4988797;28;20030;-57
2021/03/09 08:15:48;;;;;;;13.02;5.80;;;;;;;-7.06;48.08;99692.88;4999107;28;20045;-57
2021/03/09 08:18:17;;;;;;;11.88;6.07;;;;;;;-6.60;47.40;99698.47;5011220;28;20030;-56
2021/03/09 08:20:49;;;;;;;9.43;5.18;;;;;;;-6.73;48.49;99702.84;5002339;28;20030;-56
2021/03/09 08:26:04;;;;;;;10.35;5.60;;;;;;;-7.76;47.23;99628.22;5002879;28;20026;-54
2021/03/09 08:28:35;;;;;;;9.95;5.63;;;;;;;-7.71;47.96;99679.56;5019892;28;20337;-55
2021/03/09 08:31:13;;;;;;;11.67;5.17;;;;;;;-7.16;48.90;99707.50;5040452;28;20041;-55
2021/03/09 08:34:08;;;;;;;10.10;5.00;;;;;;;-7.08;46.88;99707.91;5036381;28;20270;-57
2021/03/09 08:36:36;;;;;;;9.38;5.57;;;;;;;-7.24;46.64;99705.38;5031684;28;20091;-56
2021/03/09 08:39:05;;;;;;;10.50;5.20;;;;;;;-6.97;47.12;99711.81;5042153;28;20105;-55
2021/03/09 08:41:37;;;;;;;9.82;5.30;;;;;;;-6.97;46.86;99710.91;5043438;28;20037;-56
2021/03/09 08:44:21;;;;;;;8.80;5.07;;;;;;;-6.66;46.63;99715.78;5043651;28;20029;-55
2021/03/09 08:47:03;;;;;;;13.02;5.70;;;;;;;-6.38;48.10;99714.59;5043707;28;20105;-55
2021/03/09 08:49:40;;;;;;;8.98;5.18;;;;;;;-6.70;46.21;99718.94;5042380;28;20029;-55
2021/03/09 08:52:35;;;;;;;12.25;5.63;;;;;;;-7.25;47.56;99751.44;5044386;28;20045;-54
2021/03/09 08:55:05;;;;;;;10.65;4.75;;;;;;;-6.89;46.53;99722.22;5033903;28;20349;-56
2021/03/09 08:57:31;;;;;;;9.90;4.55;;;;;;;-6.72;46.07;99734.78;5039722;28;20360;-56
2021/03/09 09:00:15;;;;;;;10.75;5.32;;;;;;;-6.52;48.28;99730.69;5042065;28;20052;-56
2021/03/09 09:02:42;;;;;;;8.57;4.50;;;;;;;-5.97;46.16;99728.19;5055503;28;20039;-55
2021/03/09 09:05:09;;;;;;;9.82;5.78;;;;;;;-6.29;45.22;99732.63;5043407;28;20345;-56
2021/03/09 09:07:37;;;;;;;7.65;4.78;;;;;;;-6.76;46.24;99679.22;5042966;28;20060;-55
2021/03/09 09:10:15;;;;;;;9.00;4.97;;;;;;;-6.29;46.13;99749.41;5042333;28;20033;-56
2021/03/09 09:12:43;;;;;;;10.07;5.90;;;;;;;-5.71;44.24;99738.59;5035097;28;20159;-56
2021/03/09 09:15:08;;;;;;;9.57;6.55;;;;;;;-5.54;43.10;99736.81;5043256;28;20036;-58
2021/03/09 09:17:36;;;;;;;11.25;6.40;;;;;;;-5.21;47.08;99742.44;5043138;28;20213;-55
2021/03/09 09:20:08;;;;;;;13.25;5.75;;;;;;;-5.84;45.15;99684.22;5043051;28;20025;-56
2021/03/09 09:22:35;;;;;;;10.27;5.50;;;;;;;-6.28;46.11;99756.19;5038074;28;20033;-55
2021/03/09 09:25:12;;;;;;;11.30;5.72;;;;;;;-6.55;46.70;99693.63;5039528;28;20029;-56
2021/03/09 09:27:48;;;;;;;10.68;5.95;;;;;;;-6.45;44.39;99742.78;5035348;28;20064;-56
2021/03/09 09:30:24;;;;;;;11.90;5.45;;;;;;;-6.07;46.65;99754.66;5043509;28;20037;-56
2021/03/09 09:32:53;;;;;;;9.82;5.50;;;;;;;-5.50;45.04;99703.34;5043067;28;20035;-56
2021/03/09 09:35:21;;;;;;;10.18;5.55;;;;;;;-5.94;44.39;99760.25;5042223;28;20018;-56
2021/03/09 09:38:01;;;;;;;14.65;6.50;;;;;;;-5.61;44.54;99669.22;5042966;28;20029;-55
2021/03/09 09:40:32;;;;;;;14.40;6.15;;;;;;;-5.16;42.89;99724.09;5042905;28;20033;-56
2021/03/09 09:43:03;;;;;;;10.35;6.45;;;;;;;-5.19;44.11;99681.91;5042997;28;20079;-55
2021/03/09 09:45:30;;;;;;;9.07;5.50;;;;;;;-5.28;43.19;99752.22;5041703;28;20037;-56
2021/03/09 09:47:58;;;;;;;13.25;6.32;;;;;;;-5.97;44.32;99755.91;5043135;28;20298;-55
2021/03/09 09:50:25;;;;;;;12.27;6.05;;;;;;;-5.51;44.11;99739.47;5042787;28;20067;-56
2021/03/09 09:52:56;;;;;;;10.00;5.70;;;;;;;-5.64;43.21;99749.78;5042830;28;20027;-56
2021/03/09 09:55:24;;;;;;;12.88;6.53;;;;;;;-5.59;45.14;99749.19;5038690;28;20021;-55
2021/03/09 09:57:52;;;;;;;14.15;6.25;;;;;;;-5.83;43.82;99765.75;5041203;28;20282;-55
2021/03/09 10:00:29;;;;;;;11.55;5.85;;;;;;;-6.51;46.20;99700.53;5042682;28;20049;-56
2021/03/09 10:03:15;;;;;;;13.75;6.20;;;;;;;-6.21;45.21;99764.88;5042688;28;20032;-56
2021/03/09 10:05:43;;;;;;;10.20;5.75;;;;;;;-5.93;44.54;99757.78;5040369;28;20218;-57
2021/03/09 10:08:10;;;;;;;10.75;6.03;;;;;;;-5.68;44.87;99758.88;5043370;28;20029;-56
2021/03/09 10:10:37;;;;;;;10.68;5.90;;;;;;;-5.91;44.29;99753.66;5043449;28;20041;-55
2021/03/09 10:13:21;;;;;;;11.43;5.63;;;;;;;-5.72;44.96;99683.88;5046558;28;20029;-57
2021/03/09 10:15:47;;;;;;;8.88;5.60;;;;;;;-5.59;43.93;99749.19;5042408;28;20234;-56
2021/03/09 10:18:21;;;;;;;11.63;5.65;;;;;;;-5.95;44.88;99713.13;5045194;28;20203;-56
2021/03/09 10:20:57;;;;;;;10.93;6.28;;;;;;;-6.14;47.60;99750.13;5042993;28;20036;-56
2021/03/09 10:23:23;;;;;;;12.05;6.32;;;;;;;-6.28;44.81;99753.66;5046191;28;20029;-57
2021/03/09 10:25:56;;;;;;;9.98;5.28;;;;;;;-6.19;44.75;99707.88;5044255;28;20096;-57
2021/03/09 10:28:25;;;;;;;12.38;5.97;;;;;;;-6.76;46.19;99694.31;5045820;28;20071;-56
2021/03/09 10:30:51;;;;;;;8.80;5.40;;;;;;;-6.11;45.24;99752.78;5043744;28;20085;-56
2021/03/09 10:33:17;;;;;;;9.63;5.60;;;;;;;-5.96;44.92;99754.25;5045681;28;20037;-55
2021/03/09 10:36:03;;;;;;;11.57;6.22;;;;;;;-6.13;45.03;99753.50;5044619;28;20021;-56
2021/03/09 10:38:30;;;;;;;15.32;7.07;;;;;;;-6.39;44.86;99750.63;5045382;28;20037;-55
2021/03/09 10:40:56;;;;;;;11.10;5.93;;;;;;;-6.03;46.10;99754.81;5044520;28;20037;-59
2021/03/09 10:43:49;;;;;;;14.70;6.47;;;;;;;-5.72;46.69;99762.91;5044341;28;20036;-56
2021/03/09 10:46:15;;;;;;;11.98;6.15;;;;;;;-6.04;45.51;99763.16;5042489;28;20041;-56
2021/03/09 10:48:41;;;;;;;10.40;5.78;;;;;;;-6.22;45.68;99764.03;5044244;28;20267;-57
2021/03/09 10:51:20;;;;;;;10.23;5.88;;;;;;;-6.43;46.55;99761.34;5042684;28;20323;-57
2021/03/09 10:53:46;;;;;;;9.13;5.55;;;;;;;-5.90;46.82;99774.69;5042026;28;20302;-56
2021/03/09 10:56:13;;;;;;;11.52;6.18;;;;;;;-6.28;44.81;99758.72;5037217;28;20215;-57
2021/03/09 10:58:40;;;;;;;9.40;5.32;;;;;;;-6.50;44.68;99745.09;5044338;28;20037;-57
2021/03/09 11:01:06;;;;;;;11.65;5.35;;;;;;;-7.02;45.47;99761.03;5044333;28;20071;-57
2021/03/09 11:03:32;;;;;;;9.25;5.35;;;;;;;-6.49;45.94;99761.91;5045179;28;20021;-56
2021/03/09 11:05:57;;;;;;;8.35;5.18;;;;;;;-6.16;46.63;99756.75;5045244;28;20257;-56
2021/03/09 11:08:23;;;;;;;9.02;4.97;;;;;;;-6.04;45.97;99769.06;5044122;28;20056;-56
2021/03/09 11:10:54;;;;;;;9.20;5.45;;;;;;;-6.61;45.16;99777.31;5042497;28;20075;-56
2021/03/09 11:13:19;;;;;;;11.88;6.03;;;;;;;-6.45;46.65;99761.28;5044237;28;20029;-57
2021/03/09 11:15:45;;;;;;;11.98;6.13;;;;;;;-6.17;45.40;99767.63;5039441;28;20049;-57
2021/03/09 11:18:12;;;;;;;9.70;5.35;;;;;;;-6.42;45.57;99761.41;5041624;28;20063;-57
2021/03/09 11:20:40;;;;;;;10.60;5.13;;;;;;;-6.54;46.11;99770.94;5040616;28;20248;-57
2021/03/09 11:23:06;;;;;;;8.98;5.70;;;;;;;-6.33;46.73;99785.34;5044426;28;20029;-56
2021/03/09 11:25:33;;;;;;;12.00;5.07;;;;;;;-6.06;45.49;99780.72;5045165;28;20405;-56
2021/03/09 11:27:59;;;;;;;10.05;5.53;;;;;;;-6.16;45.53;99786.13;5044997;28;20041;-56
2021/03/09 11:30:25;;;;;;;12.73;5.38;;;;;;;-6.16;45.55;99781.94;5044797;28;20068;-56
2021/03/09 11:32:50;;;;;;;11.38;6.15;;;;;;;-6.05;45.99;99796.72;5044703;28;20425;-57
2021/03/09 11:35:16;;;;;;;9.52;5.30;;;;;;;-6.34;45.02;99793.66;5041260;28;20091;-55
2021/03/09 11:37:42;;;;;;;9.05;5.30;;;;;;;-6.61;45.66;99796.59;5043465;28;20053;-56
2021/03/09 11:40:09;;;;;;;9.52;5.43;;;;;;;-6.43;45.28;99799.13;5045071;28;20218;-56
2021/03/09 11:42:35;;;;;;;10.75;5.00;;;;;;;-6.78;45.07;99795.78;5044893;28;20040;-56